sensor_id;sensor_type;location;lat;lon;timestamp;P1;durP1;ratioP1;P2;durP2;ratioP2
59442;SDS011;45247;47.466;19.004;2023-05-20T00:01:21;7.60;;;4.65;;
59442;SDS011;45247;47.466;19.004;2023-05-20T00:03:49;8.88;;;5.18;;
59442;SDS011;45247;47.466;19.004;2023-05-20T00:06:18;8.13;;;5.30;;
59442;SDS011;45247;47.466;19.004;2023-05-20T00:08:47;9.77;;;6.47;;
59442;SDS011;45247;47.466;19.004;2023-05-20T00:11:17;6.78;;;4.85;;
59442;SDS011;45247;47.466;19.004;2023-05-20T00:13:45;9.63;;;5.53;;
59442;SDS011;45247;47.466;19.004;2023-05-20T00:16:14;9.48;;;5.97;;
59442;SDS011;45247;47.466;19.004;2023-05-20T00:18:42;9.90;;;6.28;;
59442;SDS011;45247;47.466;19.004;2023-05-20T00:21:10;10.25;;;6.45;;
59442;SDS011;45247;47.466;19.004;2023-05-20T00:23:38;9.20;;;5.88;;
59442;SDS011;45247;47.466;19.004;2023-05-20T00:26:06;10.93;;;6.65;;
59442;SDS011;45247;47.466;19.004;2023-05-20T00:28:36;11.05;;;7.22;;
59442;SDS011;45247;47.466;19.004;2023-05-20T00:31:04;13.23;;;6.55;;
59442;SDS011;45247;47.466;19.004;2023-05-20T00:33:32;7.72;;;6.45;;
59442;SDS011;45247;47.466;19.004;2023-05-20T00:36:01;9.70;;;6.15;;
59442;SDS011;45247;47.466;19.004;2023-05-20T00:38:30;7.13;;;5.35;;
59442;SDS011;45247;47.466;19.004;2023-05-20T00:40:58;8.20;;;5.95;;
59442;SDS011;45247;47.466;19.004;2023-05-20T00:43:26;10.85;;;6.30;;
59442;SDS011;45247;47.466;19.004;2023-05-20T00:45:56;10.38;;;6.13;;
59442;SDS011;45247;47.466;19.004;2023-05-20T00:48:24;8.50;;;5.90;;
59442;SDS011;45247;47.466;19.004;2023-05-20T00:50:52;12.57;;;6.22;;
59442;SDS011;45247;47.466;19.004;2023-05-20T00:53:20;9.85;;;7.43;;
59442;SDS011;45247;47.466;19.004;2023-05-20T00:55:49;8.50;;;6.20;;
59442;SDS011;45247;47.466;19.004;2023-05-20T00:58:17;9.90;;;6.75;;
59442;SDS011;45247;47.466;19.004;2023-05-20T01:00:46;9.77;;;6.88;;
59442;SDS011;45247;47.466;19.004;2023-05-20T01:03:15;10.40;;;6.70;;
59442;SDS011;45247;47.466;19.004;2023-05-20T01:05:44;8.73;;;6.78;;
59442;SDS011;45247;47.466;19.004;2023-05-20T01:08:12;12.95;;;7.03;;
59442;SDS011;45247;47.466;19.004;2023-05-20T01:10:41;9.18;;;6.93;;
59442;SDS011;45247;47.466;19.004;2023-05-20T01:13:15;10.50;;;6.80;;
59442;SDS011;45247;47.466;19.004;2023-05-20T01:15:46;9.65;;;6.88;;
59442;SDS011;45247;47.466;19.004;2023-05-20T01:18:16;8.27;;;6.40;;
59442;SDS011;45247;47.466;19.004;2023-05-20T01:20:46;8.65;;;6.65;;
59442;SDS011;45247;47.466;19.004;2023-05-20T01:23:18;10.07;;;6.45;;
59442;SDS011;45247;47.466;19.004;2023-05-20T01:25:46;10.35;;;6.60;;
59442;SDS011;45247;47.466;19.004;2023-05-20T01:28:14;9.85;;;6.60;;
59442;SDS011;45247;47.466;19.004;2023-05-20T01:30:45;7.97;;;6.45;;
59442;SDS011;45247;47.466;19.004;2023-05-20T01:33:17;9.68;;;6.05;;
59442;SDS011;45247;47.466;19.004;2023-05-20T01:35:49;9.82;;;6.28;;
59442;SDS011;45247;47.466;19.004;2023-05-20T01:38:19;13.52;;;6.55;;
59442;SDS011;45247;47.466;19.004;2023-05-20T01:40:50;10.32;;;6.88;;
59442;SDS011;45247;47.466;19.004;2023-05-20T01:43:20;9.02;;;6.82;;
59442;SDS011;45247;47.466;19.004;2023-05-20T01:45:49;10.35;;;6.03;;
59442;SDS011;45247;47.466;19.004;2023-05-20T01:48:17;8.05;;;6.13;;
59442;SDS011;45247;47.466;19.004;2023-05-20T01:50:45;9.25;;;5.85;;
59442;SDS011;45247;47.466;19.004;2023-05-20T01:53:13;12.32;;;6.35;;
59442;SDS011;45247;47.466;19.004;2023-05-20T01:55:43;11.40;;;6.75;;
59442;SDS011;45247;47.466;19.004;2023-05-20T01:58:11;9.23;;;6.25;;
59442;SDS011;45247;47.466;19.004;2023-05-20T02:00:39;9.55;;;6.43;;
59442;SDS011;45247;47.466;19.004;2023-05-20T02:03:07;8.15;;;6.40;;
59442;SDS011;45247;47.466;19.004;2023-05-20T02:05:36;11.05;;;6.72;;
59442;SDS011;45247;47.466;19.004;2023-05-20T02:08:04;8.20;;;6.43;;
59442;SDS011;45247;47.466;19.004;2023-05-20T02:10:33;10.50;;;7.13;;
59442;SDS011;45247;47.466;19.004;2023-05-20T02:13:02;10.27;;;7.03;;
59442;SDS011;45247;47.466;19.004;2023-05-20T02:15:30;11.20;;;6.20;;
59442;SDS011;45247;47.466;19.004;2023-05-20T02:17:59;17.05;;;6.97;;
59442;SDS011;45247;47.466;19.004;2023-05-20T02:20:28;10.52;;;6.53;;
59442;SDS011;45247;47.466;19.004;2023-05-20T02:22:56;8.85;;;6.22;;
59442;SDS011;45247;47.466;19.004;2023-05-20T02:25:24;8.52;;;6.35;;
59442;SDS011;45247;47.466;19.004;2023-05-20T02:27:52;10.30;;;6.43;;
59442;SDS011;45247;47.466;19.004;2023-05-20T02:30:21;10.25;;;6.28;;
59442;SDS011;45247;47.466;19.004;2023-05-20T02:32:50;9.43;;;5.93;;
59442;SDS011;45247;47.466;19.004;2023-05-20T02:35:18;10.73;;;6.88;;
59442;SDS011;45247;47.466;19.004;2023-05-20T02:37:46;9.15;;;6.20;;
59442;SDS011;45247;47.466;19.004;2023-05-20T02:40:14;8.50;;;6.32;;
59442;SDS011;45247;47.466;19.004;2023-05-20T02:42:43;10.88;;;5.50;;
59442;SDS011;45247;47.466;19.004;2023-05-20T02:45:12;10.77;;;6.22;;
59442;SDS011;45247;47.466;19.004;2023-05-20T02:47:41;9.93;;;6.40;;
59442;SDS011;45247;47.466;19.004;2023-05-20T02:50:10;11.85;;;6.40;;
59442;SDS011;45247;47.466;19.004;2023-05-20T02:52:38;11.57;;;5.93;;
59442;SDS011;45247;47.466;19.004;2023-05-20T02:55:08;9.25;;;6.15;;
59442;SDS011;45247;47.466;19.004;2023-05-20T02:57:36;12.60;;;6.45;;
59442;SDS011;45247;47.466;19.004;2023-05-20T03:00:05;9.52;;;6.55;;
59442;SDS011;45247;47.466;19.004;2023-05-20T03:02:36;9.27;;;6.37;;
59442;SDS011;45247;47.466;19.004;2023-05-20T03:05:07;6.80;;;5.43;;
59442;SDS011;45247;47.466;19.004;2023-05-20T03:07:36;9.00;;;6.13;;
59442;SDS011;45247;47.466;19.004;2023-05-20T03:10:05;8.98;;;6.45;;
59442;SDS011;45247;47.466;19.004;2023-05-20T03:12:34;9.55;;;6.28;;
59442;SDS011;45247;47.466;19.004;2023-05-20T03:15:03;9.90;;;5.85;;
59442;SDS011;45247;47.466;19.004;2023-05-20T03:17:31;11.45;;;6.35;;
59442;SDS011;45247;47.466;19.004;2023-05-20T03:19:59;12.23;;;6.30;;
59442;SDS011;45247;47.466;19.004;2023-05-20T03:22:30;13.88;;;6.07;;
59442;SDS011;45247;47.466;19.004;2023-05-20T03:24:58;11.38;;;6.47;;
59442;SDS011;45247;47.466;19.004;2023-05-20T03:27:27;7.38;;;5.97;;
59442;SDS011;45247;47.466;19.004;2023-05-20T03:29:56;11.05;;;6.32;;
59442;SDS011;45247;47.466;19.004;2023-05-20T03:32:24;13.07;;;5.90;;
59442;SDS011;45247;47.466;19.004;2023-05-20T03:34:52;8.90;;;6.03;;
59442;SDS011;45247;47.466;19.004;2023-05-20T03:37:23;10.13;;;5.78;;
59442;SDS011;45247;47.466;19.004;2023-05-20T03:39:53;8.20;;;6.00;;
59442;SDS011;45247;47.466;19.004;2023-05-20T03:42:21;12.90;;;5.93;;
59442;SDS011;45247;47.466;19.004;2023-05-20T03:44:49;10.05;;;6.05;;
59442;SDS011;45247;47.466;19.004;2023-05-20T03:47:17;9.88;;;5.65;;
59442;SDS011;45247;47.466;19.004;2023-05-20T03:49:45;7.00;;;5.53;;
59442;SDS011;45247;47.466;19.004;2023-05-20T03:52:14;14.43;;;6.03;;
59442;SDS011;45247;47.466;19.004;2023-05-20T03:54:42;7.70;;;5.38;;
59442;SDS011;45247;47.466;19.004;2023-05-20T03:57:11;11.68;;;5.50;;
59442;SDS011;45247;47.466;19.004;2023-05-20T03:59:40;13.07;;;6.18;;
59442;SDS011;45247;47.466;19.004;2023-05-20T04:02:08;6.97;;;5.00;;
59442;SDS011;45247;47.466;19.004;2023-05-20T04:04:36;10.68;;;4.78;;
59442;SDS011;45247;47.466;19.004;2023-05-20T04:07:04;7.38;;;4.45;;
59442;SDS011;45247;47.466;19.004;2023-05-20T04:09:33;8.73;;;4.70;;
59442;SDS011;45247;47.466;19.004;2023-05-20T04:12:01;7.03;;;5.00;;
59442;SDS011;45247;47.466;19.004;2023-05-20T04:14:31;12.35;;;4.80;;
59442;SDS011;45247;47.466;19.004;2023-05-20T04:17:01;8.48;;;4.50;;
59442;SDS011;45247;47.466;19.004;2023-05-20T04:19:31;8.40;;;4.45;;
59442;SDS011;45247;47.466;19.004;2023-05-20T04:22:00;6.82;;;4.70;;
59442;SDS011;45247;47.466;19.004;2023-05-20T04:24:28;8.20;;;5.13;;
59442;SDS011;45247;47.466;19.004;2023-05-20T04:26:56;6.68;;;4.28;;
59442;SDS011;45247;47.466;19.004;2023-05-20T04:29:24;6.35;;;4.30;;
59442;SDS011;45247;47.466;19.004;2023-05-20T04:31:54;7.57;;;5.10;;
59442;SDS011;45247;47.466;19.004;2023-05-20T04:34:24;7.72;;;4.82;;
59442;SDS011;45247;47.466;19.004;2023-05-20T04:36:52;8.68;;;4.70;;
59442;SDS011;45247;47.466;19.004;2023-05-20T04:39:20;8.50;;;4.40;;
59442;SDS011;45247;47.466;19.004;2023-05-20T04:41:48;10.93;;;4.05;;
59442;SDS011;45247;47.466;19.004;2023-05-20T04:44:17;5.13;;;3.83;;
59442;SDS011;45247;47.466;19.004;2023-05-20T04:46:45;8.70;;;4.35;;
59442;SDS011;45247;47.466;19.004;2023-05-20T04:49:15;8.55;;;4.38;;
59442;SDS011;45247;47.466;19.004;2023-05-20T04:51:43;6.07;;;3.95;;
59442;SDS011;45247;47.466;19.004;2023-05-20T04:54:13;7.65;;;4.25;;
59442;SDS011;45247;47.466;19.004;2023-05-20T04:56:43;8.50;;;4.43;;
59442;SDS011;45247;47.466;19.004;2023-05-20T04:59:12;8.05;;;4.47;;
59442;SDS011;45247;47.466;19.004;2023-05-20T05:01:40;9.75;;;5.15;;
59442;SDS011;45247;47.466;19.004;2023-05-20T05:04:08;6.32;;;4.40;;
59442;SDS011;45247;47.466;19.004;2023-05-20T05:06:38;8.65;;;4.75;;
59442;SDS011;45247;47.466;19.004;2023-05-20T05:09:06;9.60;;;5.25;;
59442;SDS011;45247;47.466;19.004;2023-05-20T05:11:35;11.32;;;4.95;;
59442;SDS011;45247;47.466;19.004;2023-05-20T05:14:03;7.65;;;4.45;;
59442;SDS011;45247;47.466;19.004;2023-05-20T05:16:31;6.65;;;4.60;;
59442;SDS011;45247;47.466;19.004;2023-05-20T05:18:59;11.15;;;4.43;;
59442;SDS011;45247;47.466;19.004;2023-05-20T05:21:27;7.90;;;4.40;;
59442;SDS011;45247;47.466;19.004;2023-05-20T05:23:57;9.57;;;4.43;;
59442;SDS011;45247;47.466;19.004;2023-05-20T05:26:26;6.60;;;4.43;;
59442;SDS011;45247;47.466;19.004;2023-05-20T05:28:54;5.13;;;3.83;;
59442;SDS011;45247;47.466;19.004;2023-05-20T05:31:22;12.35;;;4.60;;
59442;SDS011;45247;47.466;19.004;2023-05-20T05:33:50;11.05;;;4.70;;
59442;SDS011;45247;47.466;19.004;2023-05-20T05:36:18;7.68;;;4.55;;
59442;SDS011;45247;47.466;19.004;2023-05-20T05:38:47;10.35;;;4.30;;
59442;SDS011;45247;47.466;19.004;2023-05-20T05:41:16;8.02;;;4.25;;
59442;SDS011;45247;47.466;19.004;2023-05-20T05:43:44;7.75;;;5.38;;
59442;SDS011;45247;47.466;19.004;2023-05-20T05:46:13;8.05;;;4.30;;
59442;SDS011;45247;47.466;19.004;2023-05-20T05:48:41;9.02;;;4.90;;
59442;SDS011;45247;47.466;19.004;2023-05-20T05:51:14;8.98;;;4.85;;
59442;SDS011;45247;47.466;19.004;2023-05-20T05:53:42;12.27;;;4.72;;
59442;SDS011;45247;47.466;19.004;2023-05-20T05:56:10;16.38;;;4.97;;
59442;SDS011;45247;47.466;19.004;2023-05-20T05:58:40;7.20;;;5.03;;
59442;SDS011;45247;47.466;19.004;2023-05-20T06:01:08;7.25;;;4.72;;
59442;SDS011;45247;47.466;19.004;2023-05-20T06:03:37;16.85;;;5.38;;
59442;SDS011;45247;47.466;19.004;2023-05-20T06:06:05;7.55;;;5.05;;
59442;SDS011;45247;47.466;19.004;2023-05-20T06:08:33;9.90;;;5.43;;
59442;SDS011;45247;47.466;19.004;2023-05-20T06:11:01;10.57;;;5.78;;
59442;SDS011;45247;47.466;19.004;2023-05-20T06:13:30;8.70;;;5.63;;
59442;SDS011;45247;47.466;19.004;2023-05-20T06:15:59;13.25;;;5.18;;
59442;SDS011;45247;47.466;19.004;2023-05-20T06:18:27;7.03;;;4.88;;
59442;SDS011;45247;47.466;19.004;2023-05-20T06:20:56;8.55;;;4.97;;
59442;SDS011;45247;47.466;19.004;2023-05-20T06:23:24;7.85;;;5.28;;
59442;SDS011;45247;47.466;19.004;2023-05-20T06:25:56;9.85;;;5.63;;
59442;SDS011;45247;47.466;19.004;2023-05-20T06:28:25;8.50;;;5.35;;
59442;SDS011;45247;47.466;19.004;2023-05-20T06:30:54;8.90;;;5.20;;
59442;SDS011;45247;47.466;19.004;2023-05-20T06:33:24;8.68;;;5.47;;
59442;SDS011;45247;47.466;19.004;2023-05-20T06:35:54;6.88;;;5.30;;
59442;SDS011;45247;47.466;19.004;2023-05-20T06:38:23;11.27;;;5.05;;
59442;SDS011;45247;47.466;19.004;2023-05-20T06:40:51;11.30;;;5.63;;
59442;SDS011;45247;47.466;19.004;2023-05-20T06:43:19;7.72;;;5.32;;
59442;SDS011;45247;47.466;19.004;2023-05-20T06:45:48;11.88;;;5.50;;
59442;SDS011;45247;47.466;19.004;2023-05-20T06:48:17;7.10;;;5.90;;
59442;SDS011;45247;47.466;19.004;2023-05-20T06:50:46;9.27;;;6.13;;
59442;SDS011;45247;47.466;19.004;2023-05-20T06:53:15;7.32;;;5.88;;
59442;SDS011;45247;47.466;19.004;2023-05-20T06:55:43;6.97;;;5.20;;
59442;SDS011;45247;47.466;19.004;2023-05-20T06:58:11;8.52;;;5.50;;
59442;SDS011;45247;47.466;19.004;2023-05-20T07:00:39;10.55;;;5.95;;
59442;SDS011;45247;47.466;19.004;2023-05-20T07:03:08;9.80;;;5.47;;
59442;SDS011;45247;47.466;19.004;2023-05-20T07:05:37;8.85;;;5.30;;
59442;SDS011;45247;47.466;19.004;2023-05-20T07:08:06;11.00;;;6.18;;
59442;SDS011;45247;47.466;19.004;2023-05-20T07:10:34;12.07;;;5.85;;
59442;SDS011;45247;47.466;19.004;2023-05-20T07:13:03;8.57;;;5.82;;
59442;SDS011;45247;47.466;19.004;2023-05-20T07:15:33;8.95;;;5.88;;
59442;SDS011;45247;47.466;19.004;2023-05-20T07:18:02;8.25;;;5.78;;
59442;SDS011;45247;47.466;19.004;2023-05-20T07:20:30;10.25;;;5.93;;
59442;SDS011;45247;47.466;19.004;2023-05-20T07:22:58;13.23;;;6.07;;
59442;SDS011;45247;47.466;19.004;2023-05-20T07:25:30;10.13;;;6.30;;
59442;SDS011;45247;47.466;19.004;2023-05-20T07:27:59;9.23;;;5.80;;
59442;SDS011;45247;47.466;19.004;2023-05-20T07:30:27;9.07;;;5.93;;
59442;SDS011;45247;47.466;19.004;2023-05-20T07:32:55;11.23;;;6.00;;
59442;SDS011;45247;47.466;19.004;2023-05-20T07:35:24;13.52;;;6.32;;
59442;SDS011;45247;47.466;19.004;2023-05-20T07:37:52;10.63;;;6.05;;
59442;SDS011;45247;47.466;19.004;2023-05-20T07:40:20;10.85;;;6.38;;
59442;SDS011;45247;47.466;19.004;2023-05-20T07:42:50;7.65;;;6.10;;
59442;SDS011;45247;47.466;19.004;2023-05-20T07:45:18;9.02;;;6.03;;
59442;SDS011;45247;47.466;19.004;2023-05-20T07:47:46;10.43;;;6.25;;
59442;SDS011;45247;47.466;19.004;2023-05-20T07:50:15;11.32;;;6.35;;
59442;SDS011;45247;47.466;19.004;2023-05-20T07:52:43;17.58;;;7.25;;
59442;SDS011;45247;47.466;19.004;2023-05-20T07:55:21;9.45;;;6.50;;
59442;SDS011;45247;47.466;19.004;2023-05-20T07:57:53;10.05;;;5.55;;
59442;SDS011;45247;47.466;19.004;2023-05-20T08:00:22;7.70;;;6.18;;
59442;SDS011;45247;47.466;19.004;2023-05-20T08:02:52;11.52;;;6.63;;
59442;SDS011;45247;47.466;19.004;2023-05-20T08:05:20;11.05;;;6.65;;
59442;SDS011;45247;47.466;19.004;2023-05-20T08:07:48;12.18;;;6.80;;
59442;SDS011;45247;47.466;19.004;2023-05-20T08:10:17;9.50;;;6.97;;
59442;SDS011;45247;47.466;19.004;2023-05-20T08:12:45;11.07;;;6.78;;
59442;SDS011;45247;47.466;19.004;2023-05-20T08:15:15;7.10;;;5.70;;
59442;SDS011;45247;47.466;19.004;2023-05-20T08:17:43;9.98;;;6.55;;
59442;SDS011;45247;47.466;19.004;2023-05-20T08:20:12;8.52;;;6.50;;
59442;SDS011;45247;47.466;19.004;2023-05-20T08:22:40;9.05;;;6.07;;
59442;SDS011;45247;47.466;19.004;2023-05-20T08:25:08;8.80;;;6.55;;
59442;SDS011;45247;47.466;19.004;2023-05-20T08:27:37;8.93;;;6.35;;
59442;SDS011;45247;47.466;19.004;2023-05-20T08:30:06;13.13;;;6.70;;
59442;SDS011;45247;47.466;19.004;2023-05-20T08:32:37;8.95;;;6.32;;
59442;SDS011;45247;47.466;19.004;2023-05-20T08:35:06;9.23;;;6.68;;
59442;SDS011;45247;47.466;19.004;2023-05-20T08:37:34;14.02;;;6.53;;
59442;SDS011;45247;47.466;19.004;2023-05-20T08:40:03;9.57;;;6.22;;
59442;SDS011;45247;47.466;19.004;2023-05-20T08:42:32;10.10;;;6.22;;
59442;SDS011;45247;47.466;19.004;2023-05-20T08:45:00;11.07;;;6.40;;
59442;SDS011;45247;47.466;19.004;2023-05-20T08:47:29;12.20;;;6.32;;
59442;SDS011;45247;47.466;19.004;2023-05-20T08:49:59;11.43;;;6.75;;
59442;SDS011;45247;47.466;19.004;2023-05-20T08:52:28;10.82;;;6.35;;
59442;SDS011;45247;47.466;19.004;2023-05-20T08:55:02;11.07;;;6.82;;
59442;SDS011;45247;47.466;19.004;2023-05-20T08:57:35;10.13;;;6.25;;
59442;SDS011;45247;47.466;19.004;2023-05-20T09:00:06;10.95;;;6.78;;
59442;SDS011;45247;47.466;19.004;2023-05-20T09:02:38;8.65;;;5.63;;
59442;SDS011;45247;47.466;19.004;2023-05-20T09:05:08;12.07;;;6.35;;
59442;SDS011;45247;47.466;19.004;2023-05-20T09:07:37;10.30;;;7.35;;
59442;SDS011;45247;47.466;19.004;2023-05-20T09:10:08;10.45;;;6.45;;
59442;SDS011;45247;47.466;19.004;2023-05-20T09:12:36;10.48;;;6.18;;
59442;SDS011;45247;47.466;19.004;2023-05-20T09:15:05;12.98;;;6.60;;
59442;SDS011;45247;47.466;19.004;2023-05-20T09:17:35;11.00;;;6.65;;
59442;SDS011;45247;47.466;19.004;2023-05-20T09:20:08;11.40;;;6.70;;
59442;SDS011;45247;47.466;19.004;2023-05-20T09:22:37;13.00;;;6.80;;
59442;SDS011;45247;47.466;19.004;2023-05-20T09:25:06;12.43;;;6.88;;
59442;SDS011;45247;47.466;19.004;2023-05-20T09:27:38;9.07;;;6.65;;
59442;SDS011;45247;47.466;19.004;2023-05-20T09:30:07;11.18;;;6.45;;
59442;SDS011;45247;47.466;19.004;2023-05-20T09:32:38;10.18;;;6.32;;
59442;SDS011;45247;47.466;19.004;2023-05-20T09:35:08;18.80;;;7.53;;
59442;SDS011;45247;47.466;19.004;2023-05-20T09:37:40;11.57;;;7.03;;
59442;SDS011;45247;47.466;19.004;2023-05-20T09:40:10;11.50;;;6.25;;
59442;SDS011;45247;47.466;19.004;2023-05-20T09:42:41;9.20;;;6.85;;
59442;SDS011;45247;47.466;19.004;2023-05-20T09:45:15;10.70;;;6.70;;
59442;SDS011;45247;47.466;19.004;2023-05-20T09:47:44;9.30;;;6.75;;
59442;SDS011;45247;47.466;19.004;2023-05-20T09:50:14;13.02;;;6.50;;
59442;SDS011;45247;47.466;19.004;2023-05-20T09:52:43;8.98;;;6.47;;
59442;SDS011;45247;47.466;19.004;2023-05-20T09:55:11;8.75;;;6.78;;
59442;SDS011;45247;47.466;19.004;2023-05-20T09:57:40;8.63;;;6.15;;
59442;SDS011;45247;47.466;19.004;2023-05-20T10:00:09;8.73;;;6.55;;
59442;SDS011;45247;47.466;19.004;2023-05-20T10:02:41;12.23;;;6.72;;
59442;SDS011;45247;47.466;19.004;2023-05-20T10:05:13;15.95;;;7.03;;
59442;SDS011;45247;47.466;19.004;2023-05-20T10:10:52;10.75;;;6.60;;
59442;SDS011;45247;47.466;19.004;2023-05-20T10:13:32;9.10;;;6.32;;
59442;SDS011;45247;47.466;19.004;2023-05-20T10:16:12;10.02;;;6.63;;
59442;SDS011;45247;47.466;19.004;2023-05-20T10:19:04;8.98;;;6.40;;
59442;SDS011;45247;47.466;19.004;2023-05-20T10:21:39;9.38;;;6.10;;
59442;SDS011;45247;47.466;19.004;2023-05-20T10:24:08;10.85;;;5.70;;
59442;SDS011;45247;47.466;19.004;2023-05-20T10:26:37;7.57;;;6.28;;
59442;SDS011;45247;47.466;19.004;2023-05-20T10:29:15;10.18;;;6.40;;
59442;SDS011;45247;47.466;19.004;2023-05-20T10:31:44;8.82;;;6.28;;
59442;SDS011;45247;47.466;19.004;2023-05-20T10:34:16;9.50;;;6.40;;
59442;SDS011;45247;47.466;19.004;2023-05-20T10:36:55;9.43;;;5.90;;
59442;SDS011;45247;47.466;19.004;2023-05-20T10:39:25;16.63;;;6.70;;
59442;SDS011;45247;47.466;19.004;2023-05-20T10:42:04;9.75;;;6.53;;
59442;SDS011;45247;47.466;19.004;2023-05-20T10:44:39;9.23;;;5.85;;
59442;SDS011;45247;47.466;19.004;2023-05-20T10:47:09;12.63;;;6.38;;
59442;SDS011;45247;47.466;19.004;2023-05-20T10:49:40;7.87;;;6.00;;
59442;SDS011;45247;47.466;19.004;2023-05-20T10:52:13;13.18;;;6.68;;
59442;SDS011;45247;47.466;19.004;2023-05-20T10:54:43;10.93;;;6.13;;
59442;SDS011;45247;47.466;19.004;2023-05-20T10:57:16;12.65;;;6.47;;
59442;SDS011;45247;47.466;19.004;2023-05-20T10:59:45;11.48;;;6.13;;
59442;SDS011;45247;47.466;19.004;2023-05-20T11:02:14;9.75;;;6.30;;
59442;SDS011;45247;47.466;19.004;2023-05-20T11:04:44;11.18;;;6.13;;
59442;SDS011;45247;47.466;19.004;2023-05-20T11:07:24;10.63;;;6.22;;
59442;SDS011;45247;47.466;19.004;2023-05-20T11:09:54;9.15;;;6.03;;
59442;SDS011;45247;47.466;19.004;2023-05-20T11:12:22;10.13;;;6.88;;
59442;SDS011;45247;47.466;19.004;2023-05-20T11:14:51;14.90;;;7.03;;
59442;SDS011;45247;47.466;19.004;2023-05-20T11:17:20;8.93;;;5.97;;
59442;SDS011;45247;47.466;19.004;2023-05-20T11:19:49;10.10;;;6.18;;
59442;SDS011;45247;47.466;19.004;2023-05-20T11:22:17;6.22;;;5.53;;
59442;SDS011;45247;47.466;19.004;2023-05-20T11:24:47;10.60;;;6.35;;
59442;SDS011;45247;47.466;19.004;2023-05-20T11:27:17;11.00;;;6.90;;
59442;SDS011;45247;47.466;19.004;2023-05-20T11:29:48;9.95;;;6.57;;
59442;SDS011;45247;47.466;19.004;2023-05-20T11:32:18;8.15;;;6.10;;
59442;SDS011;45247;47.466;19.004;2023-05-20T11:34:49;10.88;;;6.60;;
59442;SDS011;45247;47.466;19.004;2023-05-20T11:37:18;11.02;;;6.60;;
59442;SDS011;45247;47.466;19.004;2023-05-20T11:39:48;10.02;;;6.15;;
59442;SDS011;45247;47.466;19.004;2023-05-20T11:42:33;8.32;;;6.80;;
59442;SDS011;45247;47.466;19.004;2023-05-20T11:45:01;10.32;;;6.70;;
59442;SDS011;45247;47.466;19.004;2023-05-20T11:47:30;9.98;;;6.15;;
59442;SDS011;45247;47.466;19.004;2023-05-20T11:49:58;13.65;;;6.65;;
59442;SDS011;45247;47.466;19.004;2023-05-20T11:52:27;8.35;;;6.22;;
59442;SDS011;45247;47.466;19.004;2023-05-20T11:54:57;10.02;;;6.60;;
59442;SDS011;45247;47.466;19.004;2023-05-20T11:57:25;9.88;;;6.57;;
59442;SDS011;45247;47.466;19.004;2023-05-20T11:59:53;9.77;;;7.13;;
59442;SDS011;45247;47.466;19.004;2023-05-20T12:02:21;10.57;;;6.35;;
59442;SDS011;45247;47.466;19.004;2023-05-20T12:04:50;7.90;;;6.32;;
59442;SDS011;45247;47.466;19.004;2023-05-20T12:07:18;14.10;;;6.25;;
59442;SDS011;45247;47.466;19.004;2023-05-20T12:09:46;13.10;;;7.15;;
59442;SDS011;45247;47.466;19.004;2023-05-20T12:12:16;11.90;;;6.50;;
59442;SDS011;45247;47.466;19.004;2023-05-20T12:14:45;11.63;;;6.45;;
59442;SDS011;45247;47.466;19.004;2023-05-20T12:17:13;8.48;;;5.75;;
59442;SDS011;45247;47.466;19.004;2023-05-20T12:19:41;12.95;;;6.82;;
59442;SDS011;45247;47.466;19.004;2023-05-20T12:22:10;9.85;;;5.93;;
59442;SDS011;45247;47.466;19.004;2023-05-20T12:24:38;14.52;;;6.25;;
59442;SDS011;45247;47.466;19.004;2023-05-20T12:27:06;12.75;;;6.63;;
59442;SDS011;45247;47.466;19.004;2023-05-20T12:29:36;10.63;;;6.50;;
59442;SDS011;45247;47.466;19.004;2023-05-20T12:32:04;9.88;;;6.78;;
59442;SDS011;45247;47.466;19.004;2023-05-20T12:34:33;10.52;;;6.63;;
59442;SDS011;45247;47.466;19.004;2023-05-20T12:37:01;8.48;;;6.13;;
59442;SDS011;45247;47.466;19.004;2023-05-20T12:39:29;10.27;;;6.60;;
59442;SDS011;45247;47.466;19.004;2023-05-20T12:41:57;9.70;;;6.40;;
59442;SDS011;45247;47.466;19.004;2023-05-20T12:44:26;11.05;;;6.57;;
59442;SDS011;45247;47.466;19.004;2023-05-20T12:46:55;10.07;;;6.57;;
59442;SDS011;45247;47.466;19.004;2023-05-20T12:49:23;14.60;;;5.95;;
59442;SDS011;45247;47.466;19.004;2023-05-20T12:51:51;8.18;;;6.40;;
59442;SDS011;45247;47.466;19.004;2023-05-20T12:54:20;8.25;;;6.22;;
59442;SDS011;45247;47.466;19.004;2023-05-20T12:56:48;11.82;;;6.97;;
59442;SDS011;45247;47.466;19.004;2023-05-20T12:59:16;9.30;;;6.13;;
59442;SDS011;45247;47.466;19.004;2023-05-20T13:01:44;7.95;;;6.03;;
59442;SDS011;45247;47.466;19.004;2023-05-20T13:04:14;8.25;;;6.28;;
59442;SDS011;45247;47.466;19.004;2023-05-20T13:06:42;9.50;;;6.72;;
59442;SDS011;45247;47.466;19.004;2023-05-20T13:09:10;11.95;;;7.05;;
59442;SDS011;45247;47.466;19.004;2023-05-20T13:11:38;9.20;;;6.25;;
59442;SDS011;45247;47.466;19.004;2023-05-20T13:14:06;9.98;;;6.75;;
59442;SDS011;45247;47.466;19.004;2023-05-20T13:16:34;10.90;;;6.60;;
59442;SDS011;45247;47.466;19.004;2023-05-20T13:19:03;11.55;;;6.18;;
59442;SDS011;45247;47.466;19.004;2023-05-20T13:21:32;10.63;;;6.82;;
59442;SDS011;45247;47.466;19.004;2023-05-20T13:24:01;15.23;;;7.40;;
59442;SDS011;45247;47.466;19.004;2023-05-20T13:26:29;18.08;;;7.65;;
59442;SDS011;45247;47.466;19.004;2023-05-20T13:28:58;12.27;;;7.10;;
59442;SDS011;45247;47.466;19.004;2023-05-20T13:31:26;10.43;;;7.15;;
59442;SDS011;45247;47.466;19.004;2023-05-20T13:33:54;11.40;;;6.70;;
59442;SDS011;45247;47.466;19.004;2023-05-20T13:36:24;11.15;;;6.90;;
59442;SDS011;45247;47.466;19.004;2023-05-20T13:38:54;11.50;;;7.28;;
59442;SDS011;45247;47.466;19.004;2023-05-20T13:41:22;11.38;;;7.28;;
59442;SDS011;45247;47.466;19.004;2023-05-20T13:43:51;9.73;;;6.72;;
59442;SDS011;45247;47.466;19.004;2023-05-20T13:46:20;14.68;;;7.20;;
59442;SDS011;45247;47.466;19.004;2023-05-20T13:48:48;12.57;;;7.03;;
59442;SDS011;45247;47.466;19.004;2023-05-20T13:51:16;9.20;;;7.00;;
59442;SDS011;45247;47.466;19.004;2023-05-20T13:53:45;10.27;;;6.50;;
59442;SDS011;45247;47.466;19.004;2023-05-20T13:56:14;10.02;;;7.10;;
59442;SDS011;45247;47.466;19.004;2023-05-20T13:58:42;9.13;;;6.50;;
59442;SDS011;45247;47.466;19.004;2023-05-20T14:01:11;10.23;;;7.15;;
59442;SDS011;45247;47.466;19.004;2023-05-20T14:03:41;8.48;;;6.72;;
59442;SDS011;45247;47.466;19.004;2023-05-20T14:06:09;12.23;;;7.43;;
59442;SDS011;45247;47.466;19.004;2023-05-20T14:08:40;9.82;;;7.25;;
59442;SDS011;45247;47.466;19.004;2023-05-20T14:11:08;10.43;;;7.43;;
59442;SDS011;45247;47.466;19.004;2023-05-20T14:13:38;11.77;;;6.70;;
59442;SDS011;45247;47.466;19.004;2023-05-20T14:16:06;9.43;;;6.85;;
59442;SDS011;45247;47.466;19.004;2023-05-20T14:18:34;10.90;;;6.50;;
59442;SDS011;45247;47.466;19.004;2023-05-20T14:21:02;9.52;;;7.30;;
59442;SDS011;45247;47.466;19.004;2023-05-20T14:23:31;10.38;;;6.68;;
59442;SDS011;45247;47.466;19.004;2023-05-20T14:25:59;13.45;;;6.85;;
59442;SDS011;45247;47.466;19.004;2023-05-20T14:28:27;10.55;;;6.80;;
59442;SDS011;45247;47.466;19.004;2023-05-20T14:30:57;12.68;;;7.45;;
59442;SDS011;45247;47.466;19.004;2023-05-20T14:33:25;11.35;;;7.18;;
59442;SDS011;45247;47.466;19.004;2023-05-20T14:35:53;9.90;;;7.03;;
59442;SDS011;45247;47.466;19.004;2023-05-20T14:38:21;10.82;;;6.93;;
59442;SDS011;45247;47.466;19.004;2023-05-20T14:40:50;14.27;;;7.45;;
59442;SDS011;45247;47.466;19.004;2023-05-20T14:43:18;10.52;;;6.85;;